Time;durP1;ratioP1;P1;durP2;ratioP2;P2;SDS_P1;SDS_P2;PMS_P1;PMS_P2;Temp;Humidity;BMP_temperature;BMP_pressure;BME280_temperature;BME280_humidity;BME280_pressure;Samples;Min_cycle;Max_cycle;Signal;HPM_P1;HPM_P2
2022/11/15 00:00:56;;;;;;;5.70;3.30;;;;;;;13.81;87.22;99442.16;12204753;19;20706;-81
2022/11/15 00:05:16;;;;;;;10.60;3.20;;;;;;;13.76;87.46;99442.16;12223206;19;20491;-82
2022/11/15 00:09:36;;;;;;;5.57;3.13;;;;;;;13.70;87.53;99437.72;12200893;19;20008;-82
2022/11/15 00:14:04;;;;;;;8.38;3.15;;;;;;;13.65;87.95;99429.44;12223747;19;20017;-81
2022/11/15 00:18:26;;;;;;;6.13;3.13;;;;;;;13.64;87.84;99438.84;12204193;19;20110;-82
2022/11/15 00:22:46;;;;;;;5.70;2.58;;;;;;;13.67;88.13;99438.28;12221568;19;20038;-81
2022/11/15 00:27:06;;;;;;;5.57;2.95;;;;;;;13.67;88.17;99447.44;12204494;19;20023;-83
2022/11/15 00:31:27;;;;;;;7.38;3.05;;;;;;;13.71;88.09;99438.56;12228809;19;20026;-82
2022/11/15 00:35:47;;;;;;;6.28;2.97;;;;;;;13.75;87.72;99432.19;12234019;19;20022;-81
2022/11/15 00:40:08;;;;;;;6.60;3.22;;;;;;;13.79;87.75;99440.78;12208024;19;20027;-82
2022/11/15 00:44:29;;;;;;;7.10;2.90;;;;;;;13.81;87.83;99427.47;12225814;19;20021;-81
2022/11/15 00:48:49;;;;;;;6.60;3.03;;;;;;;13.83;87.81;99419.69;12199467;19;20022;-81
2022/11/15 00:53:10;;;;;;;7.18;2.80;;;;;;;13.84;87.73;99418.59;12218111;19;20093;-81
2022/11/15 00:57:30;;;;;;;7.13;2.85;;;;;;;13.86;87.91;99419.13;12195772;19;20009;-81
2022/11/15 01:01:50;;;;;;;6.32;3.08;;;;;;;13.87;88.07;99415.28;12215374;19;20100;-82
2022/11/15 01:06:11;;;;;;;7.82;3.55;;;;;;;13.87;88.15;99412.50;12199088;19;20017;-82
2022/11/15 01:10:31;;;;;;;5.70;3.10;;;;;;;13.87;88.24;99409.75;12220285;19;20143;-82
2022/11/15 01:14:51;;;;;;;5.20;3.20;;;;;;;13.86;88.40;99396.97;12196844;19;20464;-81
2022/11/15 01:19:11;;;;;;;5.78;3.08;;;;;;;13.84;88.64;99397.28;12218452;19;20051;-82
2022/11/15 01:23:31;;;;;;;4.60;2.67;;;;;;;13.80;88.44;99404.50;12214232;19;20010;-81
2022/11/15 01:27:52;;;;;;;5.15;2.78;;;;;;;13.77;88.85;99406.97;12193023;19;20081;-81
2022/11/15 01:32:13;;;;;;;10.07;3.15;;;;;;;13.70;89.34;99389.84;12211842;19;20017;-81
2022/11/15 01:36:33;;;;;;;5.72;2.78;;;;;;;13.64;90.00;99392.63;12188540;19;20031;-81
2022/11/15 01:40:53;;;;;;;6.13;2.75;;;;;;;13.55;90.53;99391.53;12211592;19;20028;-81
2022/11/15 01:45:16;;;;;;;6.75;3.17;;;;;;;13.44;91.46;99395.41;12191242;19;20055;-81
2022/11/15 01:49:40;;;;;;;4.20;2.40;;;;;;;13.41;92.57;99390.44;12213806;19;20012;-81
2022/11/15 01:54:13;;;;;;;8.82;3.17;;;;;;;13.47;93.16;99394.84;12187910;19;20013;-80
2022/11/15 01:58:35;;;;;;;5.70;2.60;;;;;;;13.54;93.38;99386.28;12261906;19;20044;-82
2022/11/15 02:02:55;;;;;;;7.80;2.95;;;;;;;13.64;93.67;99383.47;12220648;19;20041;-82
2022/11/15 02:07:18;;;;;;;7.10;2.88;;;;;;;13.72;93.98;99382.91;12226484;19;20031;-82
2022/11/15 02:11:39;;;;;;;;;;;;;;;13.79;93.85;99369.59;12217576;19;20726;-82
2022/11/15 02:16:39;;;;;;;7.13;3.10;;;;;;;13.91;93.70;99363.72;12199043;19;19938;-82
2022/11/15 02:21:26;;;;;;;6.22;2.88;;;;;;;13.97;93.46;99357.06;12199493;19;20017;-81
2022/11/15 02:25:55;;;;;;;6.85;2.88;;;;;;;13.95;92.98;99341.84;12218351;19;20062;-82
2022/11/15 02:30:41;;;;;;;5.65;2.65;;;;;;;13.86;92.53;99342.44;12200422;19;20038;-81
2022/11/15 02:35:05;;;;;;;5.20;2.60;;;;;;;13.82;92.29;99334.97;12215126;19;20018;-83
2022/11/15 02:39:36;;;;;;;5.50;2.50;;;;;;;13.78;91.54;99333.88;12198443;19;20019;-83
2022/11/15 02:44:04;;;;;;;6.00;3.28;;;;;;;13.74;91.30;99330.88;12219668;19;20042;-82
2022/11/15 02:48:25;;;;;;;5.28;3.13;;;;;;;13.68;90.83;99329.19;12188602;19;20035;-82
2022/11/15 02:52:47;;;;;;;5.32;2.55;;;;;;;13.57;90.38;99324.81;12206653;19;20021;-82
2022/11/15 02:57:15;;;;;;;5.70;2.30;;;;;;;13.46;90.63;99321.25;12186578;19;20078;-82
2022/11/15 03:02:02;;;;;;;7.22;2.88;;;;;;;13.34;90.71;99323.50;12208592;19;20512;-82
2022/11/15 03:07:00;;;;;;;5.05;3.22;;;;;;;13.21;91.08;99311.88;12187298;19;20025;-81
2022/11/15 03:11:22;;;;;;;8.88;3.30;;;;;;;13.09;91.17;99303.03;12217649;19;20383;-82
2022/11/15 03:16:06;;;;;;;5.93;3.20;;;;;;;12.99;91.75;99301.09;12201365;19;20016;-83
2022/11/15 03:20:27;;;;;;;;;;;;;;;12.92;92.19;99308.03;12224434;19;20039;-82
2022/11/15 03:24:53;;;;;;;7.60;2.72;;;;;;;12.91;92.21;99309.13;12199323;19;19970;-82
2022/11/15 03:29:17;;;;;;;6.05;3.25;;;;;;;12.93;92.26;99315.22;12224335;19;20143;-83
2022/11/15 03:33:38;;;;;;;6.53;2.95;;;;;;;12.96;92.18;99309.94;12196110;19;20026;-82
2022/11/15 03:38:23;;;;;;;6.30;2.83;;;;;;;13.02;92.20;99296.94;12219595;19;20009;-82
2022/11/15 03:42:56;;;;;;;6.95;2.70;;;;;;;13.07;92.14;99302.47;12197852;19;20470;-81
2022/11/15 03:47:36;;;;;;;5.00;2.47;;;;;;;13.06;92.33;99306.34;12215203;19;20019;-82
2022/11/15 03:52:04;;;;;;;5.45;2.72;;;;;;;13.06;92.30;99317.44;12192991;19;20013;-81
2022/11/15 03:56:24;;;;;;;6.95;2.65;;;;;;;13.05;92.62;99306.63;12213114;19;20112;-82
2022/11/15 04:00:44;;;;;;;7.28;2.80;;;;;;;12.99;92.97;99309.38;12227292;19;20039;-81
2022/11/15 04:05:05;;;;;;;4.82;2.17;;;;;;;12.99;93.40;99308.56;12228984;19;20034;-81
2022/11/15 04:09:25;;;;;;;6.30;2.53;;;;;;;13.02;93.93;99316.31;12200341;19;20013;-81
2022/11/15 04:13:45;;;;;;;4.78;2.30;;;;;;;13.04;93.91;99313.28;12218177;19;20013;-81
2022/11/15 04:18:05;;;;;;;6.00;2.67;;;;;;;13.04;93.96;99308.56;12197222;19;20030;-81
2022/11/15 04:27:04;;;;;;;4.15;2.97;;;;;;;13.10;93.74;99312.16;12198677;19;20032;-81
2022/11/15 04:31:24;;;;;;;5.05;3.03;;;;;;;13.11;94.54;99308.28;12222395;19;20030;-81
2022/11/15 04:37:11;;;;;;;4.97;2.90;;;;;;;13.12;94.64;99305.25;12220505;19;20028;-81
2022/11/15 04:40:25;;;;;;;8.10;2.83;;;;;;;13.17;94.96;99312.69;12117504;19;2004379;-81
2022/11/15 04:44:45;;;;;;;5.47;3.03;;;;;;;13.19;95.28;99308.53;12215643;19;20043;-81
2022/11/15 04:49:05;;;;;;;4.97;2.53;;;;;;;13.21;95.16;99313.81;12199064;19;20027;-81
2022/11/15 04:53:25;;;;;;;7.28;3.20;;;;;;;13.14;96.65;99314.06;12224784;19;20358;-81
2022/11/15 04:58:01;;;;;;;7.20;2.95;;;;;;;12.99;99.38;99312.16;12205096;19;20006;-82
2022/11/15 05:02:21;;;;;;;6.30;3.45;;;;;;;12.87;100.00;99311.59;12277306;19;20040;-81
2022/11/15 05:06:41;;;;;;;7.03;3.15;;;;;;;12.77;100.00;99306.91;12251129;19;20017;-82
2022/11/15 05:11:02;;;;;;;7.55;3.70;;;;;;;12.71;100.00;99302.50;12245984;19;20022;-82
2022/11/15 05:15:22;;;;;;;6.82;3.40;;;;;;;12.65;100.00;99298.06;12217168;19;20094;-82
2022/11/15 05:19:42;;;;;;;7.47;3.83;;;;;;;12.60;100.00;99292.53;12240071;19;20055;-82
2022/11/15 05:24:03;;;;;;;7.07;3.40;;;;;;;12.58;100.00;99289.22;12210396;19;20030;-82
2022/11/15 05:28:23;;;;;;;7.95;3.65;;;;;;;12.55;100.00;99295.28;12235556;19;20013;-82
2022/11/15 05:32:44;;;;;;;6.80;3.97;;;;;;;12.51;100.00;99289.50;12232833;19;20014;-82
2022/11/15 05:37:04;;;;;;;7.45;3.70;;;;;;;12.49;100.00;99290.88;12212517;19;20064;-81
2022/11/15 05:41:38;;;;;;;7.43;3.83;;;;;;;12.44;100.00;99283.41;12233590;19;20058;-80
2022/11/15 05:45:59;;;;;;;8.18;4.00;;;;;;;12.41;100.00;99270.16;12208970;19;20518;-81
2022/11/15 05:50:20;;;;;;;6.75;3.67;;;;;;;12.39;100.00;99274.28;12232507;19;20526;-81
2022/11/15 05:54:41;;;;;;;8.60;4.30;;;;;;;12.38;100.00;99264.34;12204041;19;20031;-82
2022/11/15 05:59:02;;;;;;;8.75;3.95;;;;;;;12.34;100.00;99260.47;12224326;19;20017;-82
2022/11/15 06:03:22;;;;;;;8.65;3.53;;;;;;;12.31;100.00;99262.69;12206151;19;20018;-82
2022/11/15 06:07:44;;;;;;;6.30;3.83;;;;;;;12.28;100.00;99263.25;12221383;19;20058;-82
2022/11/15 06:12:04;;;;;;;7.40;3.55;;;;;;;12.28;100.00;99273.44;12195306;19;20021;-82
2022/11/15 06:16:24;;;;;;;7.70;4.30;;;;;;;12.28;100.00;99268.78;12213329;19;20635;-82
2022/11/15 06:20:44;;;;;;;6.80;3.53;;;;;;;12.27;100.00;99277.31;12214210;19;20017;-81
2022/11/15 06:25:05;;;;;;;6.82;3.42;;;;;;;12.28;100.00;99277.06;12194392;19;20547;-82
2022/11/15 06:29:25;;;;;;;7.40;3.45;;;;;;;12.28;100.00;99274.28;12221287;19;20031;-81
2022/11/15 06:33:46;;;;;;;8.40;3.60;;;;;;;12.31;100.00;99270.13;12196709;19;20018;-82
2022/11/15 06:38:10;;;;;;;7.55;3.20;;;;;;;12.32;100.00;99272.63;12220917;19;20117;-82
2022/11/15 06:42:30;;;;;;;6.18;3.38;;;;;;;12.28;100.00;99285.34;12194733;19;20528;-82
2022/11/15 06:46:51;;;;;;;6.78;3.60;;;;;;;12.24;100.00;99280.63;12226018;19;20360;-82
2022/11/15 06:51:11;;;;;;;7.82;3.92;;;;;;;12.21;100.00;99284.75;12218322;19;20017;-84
2022/11/15 06:55:31;;;;;;;8.02;3.50;;;;;;;12.17;100.00;99286.44;12282242;19;20047;-84
2022/11/15 06:59:51;;;;;;;9.57;3.50;;;;;;;12.09;100.00;99289.72;12251527;19;20489;-84
2022/11/15 07:04:11;;;;;;;7.05;3.55;;;;;;;12.04;100.00;99295.22;12205796;19;20031;-84
2022/11/15 07:08:32;;;;;;;7.65;3.88;;;;;;;11.99;100.00;99287.75;12225381;19;20410;-84
2022/11/15 07:12:53;;;;;;;10.45;3.78;;;;;;;11.99;100.00;99282.25;12206226;19;20016;-85
2022/11/15 07:17:13;;;;;;;6.75;3.88;;;;;;;12.05;100.00;99283.91;12228720;19;20054;-84
2022/11/15 07:21:33;;;;;;;9.13;3.92;;;;;;;12.15;100.00;99283.09;12207547;19;20018;-83
2022/11/15 07:25:56;;;;;;;6.32;3.85;;;;;;;12.27;100.00;99288.38;12225330;19;20027;-83
2022/11/15 07:30:16;;;;;;;7.00;3.80;;;;;;;12.40;100.00;99285.06;12210731;19;20026;-83
2022/11/15 07:34:36;;;;;;;9.60;3.75;;;;;;;12.49;100.00;99279.81;12225610;19;20023;-84
2022/11/15 07:38:56;;;;;;;9.00;3.90;;;;;;;12.56;100.00;99274.88;12223997;19;20082;-82
2022/11/15 07:43:17;;;;;;;7.38;3.85;;;;;;;12.63;100.00;99275.41;12222957;19;20038;-82
2022/11/15 07:47:37;;;;;;;7.10;4.20;;;;;;;12.73;100.00;99269.03;12225339;19;20031;-83
2022/11/15 07:51:58;;;;;;;6.70;3.75;;;;;;;12.82;100.00;99272.94;12183456;19;20095;-84
2022/11/15 07:56:20;;;;;;;8.43;3.65;;;;;;;12.93;100.00;99266.25;12219921;19;20035;-82
2022/11/15 08:00:40;;;;;;;10.90;4.03;;;;;;;13.06;100.00;99264.88;12208870;19;20017;-83
2022/11/15 08:05:02;;;;;;;7.63;3.65;;;;;;;13.20;100.00;99265.09;12227110;19;20027;-83
2022/11/15 08:09:23;;;;;;;9.68;3.45;;;;;;;13.34;100.00;99276.44;12211343;19;20428;-82
2022/11/15 08:13:45;;;;;;;7.85;4.00;;;;;;;13.47;100.00;99270.31;12227149;19;20028;-80
2022/11/15 08:18:10;;;;;;;7.45;3.55;;;;;;;13.59;100.00;99270.84;12208245;19;20021;-80
2022/11/15 08:22:30;;;;;;;5.57;3.22;;;;;;;13.72;100.00;99280.47;12228674;19;20115;-81
2022/11/15 08:26:50;;;;;;;6.40;3.58;;;;;;;13.87;100.00;99269.31;12229261;19;20486;-80
2022/11/15 08:31:17;;;;;;;7.05;3.72;;;;;;;13.98;100.00;99264.56;12204821;19;20017;-82
2022/11/15 08:35:37;;;;;;;11.88;4.88;;;;;;;14.07;100.00;99268.38;12227829;19;20013;-83
2022/11/15 08:39:57;;;;;;;11.45;4.35;;;;;;;14.10;100.00;99264.22;12196229;19;20380;-82
2022/11/15 08:44:18;;;;;;;7.25;4.30;;;;;;;14.17;100.00;99269.44;12225920;19;20021;-82
2022/11/15 08:48:39;;;;;;;8.77;4.60;;;;;;;14.22;100.00;99273.00;12205292;19;20034;-82
2022/11/15 08:53:05;;;;;;;6.55;4.20;;;;;;;14.23;100.00;99273.81;12219948;19;20018;-82
2022/11/15 08:57:29;;;;;;;7.70;4.22;;;;;;;14.30;100.00;99268.78;12200201;19;20026;-81
2022/11/15 09:01:50;;;;;;;6.55;4.60;;;;;;;14.35;100.00;99268.75;12223267;19;20063;-83
2022/11/15 09:06:10;;;;;;;8.63;4.75;;;;;;;14.35;100.00;99272.34;12199236;19;20035;-82
2022/11/15 09:10:31;;;;;;;9.85;4.53;;;;;;;14.38;100.00;99270.94;12225894;19;20107;-82
2022/11/15 09:14:51;;;;;;;11.18;4.50;;;;;;;14.48;100.00;99262.53;12228034;19;20099;-82
2022/11/15 09:19:11;;;;;;;7.70;4.63;;;;;;;14.56;100.00;99261.97;12198524;19;20030;-81
2022/11/15 09:23:31;;;;;;;7.78;4.10;;;;;;;14.63;100.00;99255.25;12221513;19;20035;-82
2022/11/15 09:27:51;;;;;;;8.02;4.35;;;;;;;14.71;100.00;99257.41;12206394;19;20498;-82
2022/11/15 09:32:11;;;;;;;6.45;4.47;;;;;;;14.81;100.00;99255.38;12224542;19;20090;-83
2022/11/15 09:36:32;;;;;;;8.77;3.97;;;;;;;14.89;100.00;99262.22;12198733;19;20031;-83
2022/11/15 09:41:18;;;;;;;8.95;4.35;;;;;;;14.93;100.00;99252.22;12226638;19;20118;-82
2022/11/15 09:46:01;;;;;;;11.07;4.85;;;;;;;14.90;100.00;99250.03;12202977;19;20541;-83
2022/11/15 09:50:37;;;;;;;7.93;4.35;;;;;;;15.01;100.00;99246.00;12231478;19;20082;-82
2022/11/15 09:54:44;;;;;;;8.75;4.68;;;;;;;15.16;100.00;99249.75;12206745;19;20006;-82
2022/11/15 09:58:57;;;;;;;8.68;4.07;;;;;;;15.25;100.00;99239.66;12231730;19;20007;-82
2022/11/15 10:03:10;;;;;;;6.95;4.63;;;;;;;15.32;100.00;99247.63;12219783;19;20017;-82
2022/11/15 10:07:29;;;;;;;14.33;6.63;;;;;;;15.39;99.79;99237.84;12246788;19;20006;-82
2022/11/15 10:11:35;;;;;;;8.18;4.30;;;;;;;15.53;99.61;99226.84;12237986;19;20046;-81
2022/11/15 10:15:45;;;;;;;10.20;4.15;;;;;;;15.69;98.66;99238.63;12199682;19;20078;-81
2022/11/15 10:20:41;;;;;;;8.55;4.15;;;;;;;15.70;96.24;99223.59;12214688;19;20011;-82
2022/11/15 10:24:45;;;;;;;6.38;3.72;;;;;;;15.70;97.49;99213.34;12194172;19;20010;-82
2022/11/15 10:28:47;;;;;;;5.80;4.10;;;;;;;15.68;96.21;99209.19;12222199;19;20038;-82
2022/11/15 10:32:50;;;;;;;6.78;4.25;;;;;;;15.66;96.51;99206.69;12222807;19;20444;-81
2022/11/15 10:36:57;;;;;;;7.80;3.80;;;;;;;15.76;95.89;99205.72;12200936;19;20020;-82
2022/11/15 10:41:07;;;;;;;7.28;4.00;;;;;;;15.82;95.01;99195.38;12224423;19;20029;-81
2022/11/15 10:45:28;;;;;;;6.28;4.07;;;;;;;15.77;95.35;99189.91;12202906;19;20034;-82
2022/11/15 10:49:32;;;;;;;8.88;4.03;;;;;;;15.70;95.42;99184.72;12224688;19;20147;-82
2022/11/15 10:53:44;;;;;;;6.55;4.22;;;;;;;15.57;95.28;99179.88;12222725;19;20006;-82
2022/11/15 10:57:52;;;;;;;7.75;4.05;;;;;;;15.56;96.17;99170.72;12196542;19;20018;-81
2022/11/15 11:01:54;;;;;;;7.75;3.80;;;;;;;15.61;96.38;99167.03;12222894;19;20022;-81
2022/11/15 11:06:17;;;;;;;6.55;3.83;;;;;;;15.63;95.91;99167.56;12217602;19;20449;-81
2022/11/15 11:10:21;;;;;;;7.80;3.78;;;;;;;15.70;96.27;99159.72;12197681;19;20011;-81
2022/11/15 11:14:43;;;;;;;6.32;3.00;;;;;;;15.86;96.12;99147.25;12216931;19;20013;-81
2022/11/15 11:18:50;;;;;;;7.40;3.83;;;;;;;16.10;95.51;99138.84;12197587;19;20086;-81
2022/11/15 11:22:55;;;;;;;6.50;3.42;;;;;;;16.25;95.16;99137.75;12221905;19;20003;-82
2022/11/15 11:27:24;;;;;;;6.85;3.67;;;;;;;16.34;94.39;99133.16;12218604;19;20014;-82
2022/11/15 11:31:51;;;;;;;7.93;3.47;;;;;;;16.41;93.96;99119.66;12223705;19;20018;-83
2022/11/15 11:35:59;;;;;;;5.18;2.78;;;;;;;16.45;92.67;99117.13;12236327;19;20479;-81
2022/11/15 11:40:15;;;;;;;5.85;2.45;;;;;;;16.39;91.96;99101.66;12211519;19;20019;-82
2022/11/15 11:44:34;;;;;;;5.63;2.60;;;;;;;16.50;92.62;99105.88;12228876;19;20086;-82
2022/11/15 11:48:58;;;;;;;3.70;2.38;;;;;;;16.67;90.98;99096.13;12217210;19;20002;-84
2022/11/15 11:53:08;;;;;;;3.40;1.80;;;;;;;16.76;89.80;99095.13;12283362;19;20259;-85
2022/11/15 11:57:27;;;;;;;2.78;1.73;;;;;;;16.78;88.73;99087.31;12260512;19;20014;-83
2022/11/15 12:01:37;;;;;;;3.72;1.90;;;;;;;16.79;87.81;99083.38;12278552;19;20319;-84
2022/11/15 12:05:48;;;;;;;5.40;1.63;;;;;;;16.79;87.08;99077.81;12275116;19;20013;-83
2022/11/15 12:10:05;;;;;;;2.88;1.60;;;;;;;17.02;85.80;99064.84;12205923;19;20436;-83
2022/11/15 12:14:19;;;;;;;4.32;1.52;;;;;;;17.08;84.32;99060.00;12229691;19;20103;-82
2022/11/15 12:18:21;;;;;;;2.47;1.20;;;;;;;17.06;83.88;99049.16;12209226;19;20015;-83
2022/11/15 12:22:36;;;;;;;3.53;1.40;;;;;;;17.07;83.44;99044.41;12225753;19;20014;-83
2022/11/15 12:26:48;;;;;;;2.33;1.27;;;;;;;17.13;83.10;99039.56;12229329;19;20034;-83
2022/11/15 12:31:00;;;;;;;3.42;1.30;;;;;;;17.13;82.85;99031.19;12208973;19;20074;-82
2022/11/15 12:35:21;;;;;;;2.53;1.30;;;;;;;16.98;82.07;99019.25;12222959;19;20014;-82
2022/11/15 12:40:01;;;;;;;2.47;1.33;;;;;;;16.70;81.93;99029.56;12203767;19;20007;-83
2022/11/15 12:44:11;;;;;;;2.20;1.00;;;;;;;16.49;81.65;99029.16;12225583;19;20019;-81
2022/11/15 12:48:15;;;;;;;2.30;1.30;;;;;;;16.48;82.78;99029.44;12205153;19;20011;-83
2022/11/15 12:52:18;;;;;;;5.20;1.02;;;;;;;16.49;82.68;99020.00;12222805;19;20014;-82
2022/11/15 12:56:21;;;;;;;1.08;0.75;;;;;;;16.40;83.21;99020.69;12224914;19;20710;-82
2022/11/15 13:00:25;;;;;;;2.92;1.25;;;;;;;16.40;84.04;99009.59;12201087;19;20523;-82
2022/11/15 13:04:27;;;;;;;3.40;1.73;;;;;;;16.51;83.90;99001.03;12222398;19;20018;-82
2022/11/15 13:08:50;;;;;;;4.10;1.30;;;;;;;16.58;84.17;99007.00;12215763;19;20014;-82
2022/11/15 13:12:53;;;;;;;4.93;1.40;;;;;;;16.57;85.16;99008.16;12200426;19;20011;-83
2022/11/15 13:16:58;;;;;;;3.60;1.17;;;;;;;16.47;84.82;99002.78;12219788;19;20082;-82
2022/11/15 13:22:50;;;;;;;5.88;1.33;;;;;;;16.43;84.94;99004.53;12202062;19;20014;-81
2022/11/15 13:25:35;;;;;;;;;;;;;;;16.29;85.63;98988.66;12220223;19;20011;-83
2022/11/15 13:29:37;;;;;;;2.17;1.42;;;;;;;16.17;85.43;98985.56;12220679;19;19931;-82
2022/11/15 13:33:39;;;;;;;2.67;1.77;;;;;;;16.05;86.08;98972.16;12194424;19;20009;-82
2022/11/15 13:37:41;;;;;;;3.42;1.60;;;;;;;16.06;86.62;98971.06;12216071;19;20014;-82
2022/11/15 13:41:49;;;;;;;5.65;1.83;;;;;;;16.11;86.84;98967.34;12217347;19;20026;-82
2022/11/15 13:46:04;;;;;;;3.80;2.17;;;;;;;16.09;87.06;98958.47;12196986;19;20010;-82
2022/11/15 13:50:11;;;;;;;5.63;2.00;;;;;;;16.08;87.43;98952.09;12216025;19;20086;-82
2022/11/15 13:54:13;;;;;;;3.60;1.85;;;;;;;16.13;87.14;98934.50;12190679;19;20003;-82
2022/11/15 13:58:15;;;;;;;6.35;1.63;;;;;;;16.15;86.71;98935.00;12217654;19;20010;-82
2022/11/15 14:02:32;;;;;;;3.60;1.95;;;;;;;16.12;87.74;98930.91;12213712;19;20011;-82
2022/11/15 14:06:45;;;;;;;6.22;1.90;;;;;;;16.17;87.55;98928.00;12195234;19;20375;-82
2022/11/15 14:10:47;;;;;;;3.35;1.70;;;;;;;16.25;87.81;98923.72;12213021;19;20003;-82
2022/11/15 14:14:49;;;;;;;3.75;1.75;;;;;;;16.20;86.85;98909.91;12218256;19;20394;-81
2022/11/15 14:18:53;;;;;;;3.90;1.70;;;;;;;16.27;86.97;98910.34;12195107;19;20356;-81
2022/11/15 14:22:55;;;;;;;;;;;;;;;16.32;87.42;98901.88;12215114;19;20010;-82
2022/11/15 14:27:18;;;;;;;4.93;1.75;;;;;;;16.37;86.95;98892.59;12210197;19;19974;-82
2022/11/15 14:31:20;;;;;;;4.47;1.87;;;;;;;16.41;87.66;98899.19;12189817;19;20017;-82
2022/11/15 14:35:23;;;;;;;7.05;1.80;;;;;;;16.40;87.49;98889.19;12250101;19;20002;-82
2022/11/15 14:39:25;;;;;;;5.88;1.70;;;;;;;16.35;88.56;98881.78;12211945;19;20745;-82
2022/11/15 14:43:26;;;;;;;8.33;2.33;;;;;;;16.27;89.52;98876.97;12209587;19;20034;-82
2022/11/15 14:47:28;;;;;;;6.32;1.60;;;;;;;16.23;90.29;98867.59;12209936;19;20026;-82
2022/11/15 14:51:30;;;;;;;5.32;1.75;;;;;;;16.13;91.13;98854.75;12185565;19;20559;-82
2022/11/15 14:55:35;;;;;;;3.70;1.83;;;;;;;16.03;91.87;98854.13;12206117;19;20016;-82
2022/11/15 14:59:37;;;;;;;5.78;1.75;;;;;;;15.87;93.11;98853.59;12207495;19;20023;-82
2022/11/15 15:03:39;;;;;;;6.47;1.80;;;;;;;15.70;94.49;98840.31;12182976;19;20313;-82
2022/11/15 15:07:42;;;;;;;7.60;2.03;;;;;;;15.56;94.93;98828.38;12212999;19;20039;-82
2022/11/15 15:11:44;;;;;;;5.75;1.75;;;;;;;15.42;95.57;98825.56;12215535;19;20018;-82
2022/11/15 15:15:47;;;;;;;4.73;1.73;;;;;;;15.27;96.45;98821.09;12194748;19;20940;-82
2022/11/15 15:19:49;;;;;;;4.35;1.90;;;;;;;15.13;97.66;98809.97;12219089;19;20070;-82
2022/11/15 15:23:53;;;;;;;3.63;1.42;;;;;;;15.04;98.82;98803.47;12214063;19;20006;-82
2022/11/15 15:27:55;;;;;;;4.88;2.72;;;;;;;14.97;98.74;98792.78;12195712;19;20014;-81
2022/11/15 15:31:57;;;;;;;3.37;1.50;;;;;;;14.85;99.41;98778.56;12216265;19;20496;-82
2022/11/15 15:35:59;;;;;;;3.05;1.55;;;;;;;14.79;99.24;98777.81;12219916;19;20033;-81
2022/11/15 15:40:00;;;;;;;2.70;1.13;;;;;;;14.78;99.08;98778.09;12217228;19;20472;-81
2022/11/15 15:44:02;;;;;;;3.30;1.17;;;;;;;14.74;99.28;98771.53;12218891;19;20381;-82
2022/11/15 15:48:04;;;;;;;3.45;1.33;;;;;;;14.72;99.50;98768.22;12199117;19;20010;-81
2022/11/15 15:52:06;;;;;;;5.68;1.58;;;;;;;14.71;100.00;98749.94;12219486;19;20018;-81
2022/11/15 15:56:08;;;;;;;3.05;1.05;;;;;;;14.63;98.84;98767.25;12220356;19;20018;-81
2022/11/15 16:00:10;;;;;;;5.15;1.77;;;;;;;14.61;98.41;98772.31;12197954;19;20089;-81
2022/11/15 16:04:13;;;;;;;3.72;2.10;;;;;;;14.56;98.66;98774.03;12216311;19;20030;-81
2022/11/15 16:08:26;;;;;;;5.20;2.40;;;;;;;14.55;98.82;98769.63;12215386;19;20588;-82
2022/11/15 16:12:42;;;;;;;3.75;2.17;;;;;;;14.54;99.30;98759.63;12197592;19;20121;-83
2022/11/15 16:16:48;;;;;;;3.67;1.77;;;;;;;14.50;99.87;98755.78;12223929;19;20043;-81
2022/11/15 16:20:51;;;;;;;4.20;2.28;;;;;;;14.48;100.00;98754.44;12226148;19;20007;-83
2022/11/15 16:24:53;;;;;;;5.22;2.85;;;;;;;14.44;100.00;98747.88;12203509;19;20050;-82
2022/11/15 16:28:55;;;;;;;4.80;2.10;;;;;;;14.40;100.00;98742.09;12231535;19;20014;-83
2022/11/15 16:32:57;;;;;;;4.65;1.98;;;;;;;14.37;100.00;98739.94;12225678;19;20003;-82
2022/11/15 16:36:59;;;;;;;9.65;2.40;;;;;;;14.30;100.00;98737.53;12203092;19;20018;-82
2022/11/15 16:41:00;;;;;;;3.43;1.97;;;;;;;14.22;100.00;98732.69;12228955;19;20094;-82
2022/11/15 16:45:02;;;;;;;6.22;1.83;;;;;;;14.19;100.00;98735.22;12208298;19;20429;-82
2022/11/15 16:49:04;;;;;;;4.00;1.38;;;;;;;14.11;100.00;98723.69;12230888;19;20011;-83
2022/11/15 16:53:06;;;;;;;4.18;2.17;;;;;;;14.11;100.00;98729.22;12229767;19;20016;-83
2022/11/15 16:57:10;;;;;;;5.63;1.70;;;;;;;14.08;100.00;98710.44;12238115;19;20054;-82
2022/11/15 17:01:23;;;;;;;5.18;2.00;;;;;;;14.05;100.00;98719.34;12271960;19;20006;-81
2022/11/15 17:05:45;;;;;;;3.50;1.80;;;;;;;14.02;100.00;98705.28;12243382;19;20014;-82
2022/11/15 17:10:02;;;;;;;4.57;1.73;;;;;;;14.02;100.00;98699.75;12218740;19;20018;-82
2022/11/15 17:14:04;;;;;;;4.55;1.88;;;;;;;13.96;100.00;98699.00;12234783;19;20003;-83
2022/11/15 17:18:14;;;;;;;6.72;1.92;;;;;;;13.95;100.00;98685.44;12216807;19;20011;-83
2022/11/15 17:22:20;;;;;;;5.82;3.03;;;;;;;13.87;100.00;98678.63;12234189;19;20010;-83
2022/11/15 17:26:22;;;;;;;7.55;2.95;;;;;;;13.85;100.00;98669.78;12239505;19;20018;-82
2022/11/15 17:30:31;;;;;;;5.40;3.65;;;;;;;13.80;100.00;98664.31;12218670;19;20014;-82
2022/11/15 17:34:32;;;;;;;4.90;2.75;;;;;;;13.81;100.00;98665.97;12236021;19;20011;-81
2022/11/15 17:38:34;;;;;;;5.97;2.15;;;;;;;13.84;100.00;98646.81;12232787;19;20014;-82
2022/11/15 17:42:36;;;;;;;4.35;2.25;;;;;;;13.88;98.80;98650.63;12218297;19;20488;-82
2022/11/15 17:46:39;;;;;;;6.05;1.50;;;;;;;13.96;98.31;98659.41;12238099;19;20023;-82
2022/11/15 17:50:41;;;;;;;4.07;1.60;;;;;;;14.04;97.17;98655.94;12235154;19;20014;-82
2022/11/15 17:54:42;;;;;;;3.30;1.85;;;;;;;14.06;96.67;98671.13;12206821;19;20356;-82
2022/11/15 17:58:56;;;;;;;3.63;2.30;;;;;;;14.08;95.72;98665.28;12236711;19;20043;-83
2022/11/15 18:02:57;;;;;;;6.63;2.45;;;;;;;14.11;95.91;98661.94;12228838;19;19998;-82
2022/11/15 18:06:59;;;;;;;6.15;2.92;;;;;;;14.16;96.68;98666.53;12210967;19;20074;-82
2022/11/15 18:11:32;;;;;;;3.20;1.95;;;;;;;14.16;96.13;98661.00;12261214;19;20040;-82
2022/11/15 18:15:36;;;;;;;4.45;1.75;;;;;;;14.14;96.27;98639.97;12215051;19;20006;-82
2022/11/15 18:19:38;;;;;;;6.70;1.70;;;;;;;14.11;96.79;98634.22;12234071;19;20062;-81
2022/11/15 18:23:42;;;;;;;4.97;2.00;;;;;;;14.06;97.28;98635.13;12232424;19;20050;-82
2022/11/15 18:27:44;;;;;;;4.40;1.83;;;;;;;14.00;97.12;98633.56;12212362;19;20017;-82
2022/11/15 18:31:48;;;;;;;4.50;1.65;;;;;;;13.98;97.83;98630.28;12233295;19;19998;-82
2022/11/15 18:35:58;;;;;;;4.45;1.88;;;;;;;13.96;98.45;98626.97;12237492;19;20007;-82
2022/11/15 18:40:00;;;;;;;7.32;2.17;;;;;;;13.92;98.77;98623.19;12219284;19;19999;-82
2022/11/15 18:44:02;;;;;;;8.02;2.65;;;;;;;13.87;98.84;98617.72;12269798;19;20006;-82
2022/11/15 18:48:03;;;;;;;2.92;1.80;;;;;;;13.84;99.14;98612.78;12247460;19;20023;-82
2022/11/15 18:52:05;;;;;;;5.07;2.10;;;;;;;13.81;99.65;98614.19;12246346;19;20051;-82
2022/11/15 18:56:13;;;;;;;8.23;2.60;;;;;;;13.80;99.27;98608.94;12237549;19;20013;-81
2022/11/15 19:00:15;;;;;;;6.28;1.92;;;;;;;13.80;99.38;98612.56;12193413;19;20014;-81
2022/11/15 19:04:19;;;;;;;3.42;1.70;;;;;;;13.77;99.23;98604.84;12227271;19;20018;-83
2022/11/15 19:08:21;;;;;;;3.38;1.83;;;;;;;13.76;98.90;98605.13;12232718;19;20088;-82
2022/11/15 19:12:23;;;;;;;4.47;1.42;;;;;;;13.74;98.84;98596.31;12203631;19;20042;-83
2022/11/15 19:16:26;;;;;;;3.13;1.85;;;;;;;13.73;99.07;98591.91;12225526;19;20007;-82
2022/11/15 19:20:28;;;;;;;2.95;1.60;;;;;;;13.73;98.70;98594.66;12230464;19;20002;-81
2022/11/15 19:24:29;;;;;;;4.20;1.50;;;;;;;13.74;98.61;98596.31;12204808;19;20015;-82
2022/11/15 19:28:32;;;;;;;4.72;1.80;;;;;;;13.77;98.88;98596.56;12232001;19;20049;-82
2022/11/15 19:32:33;;;;;;;8.20;2.25;;;;;;;13.79;99.47;98599.81;12228978;19;20018;-82
2022/11/15 19:36:40;;;;;;;5.10;1.70;;;;;;;13.80;99.96;98590.41;12205601;19;20003;-81
2022/11/15 19:40:42;;;;;;;4.57;1.85;;;;;;;13.79;100.00;98594.28;12228383;19;20010;-82
2022/11/15 19:44:43;;;;;;;3.05;1.90;;;;;;;13.81;100.00;98585.69;12228899;19;20006;-82
2022/11/15 19:48:46;;;;;;;3.10;1.58;;;;;;;13.82;100.00;98581.78;12210100;19;20010;-81